Skip Navigation Links Skip Navigation Links

Current Weather

Cherry Capital, Traverse City, Mich.

For information only: do not use for flight planning or navigation.
Latest weather
Observation time Monday, December 6, 2021 7:53 AM EST
Local time Monday, December 6, 2021 8:44 AM EST
Flight conditions Visual Meteorological Conditions
Winds
Wind direction West-Southwest (250°)
Wind speed 15 mph
Wind gusting to 22 mph
Visibility 9 mi.
Present weather light snow
Sky condition
Ceiling 3,300 ft. broken clouds
Cloud layer few clouds 2,600 ft.
Cloud layer broken clouds 3,300 ft.
Cloud layer overcast 4,400 ft.
Temperature 34°F
Dewpoint 25°F
Altimeter 29.46 in.Hg
Precipitation
Precipitation last hour trace
Derived measurements
Relative humidity 69%
Wind chill 24°F
Density altitude -462 ft.
Sea-level pressure 29.48 in.Hg
Remarks
System requires maintenance.
Automated weather observing station with precipitation discriminator.
METAR KTVC 061253Z 25013G19KT 9SM -SN FEW026 BKN033 OVC044 01/M04 A2946 RMK AO2 SLP983 P0000 T00111039 $

Settings

Location code

InnerDrive.Weather 4.0.6770.0 Release CLR 4.0.30319.42000
Copyright ©2018 Inner Drive Technology. All rights reserved. Portions Copyright ©1986-2018 David Braverman.

Find weather

Site navigation


Skip Navigation Links

Place info

Page info

PayPal - The safer, easier way to pay online!

Return home.

Copyright ©2021 Inner Drive Technology. Purveyors of fine, hand-crafted computer software. Page printed 2021-12-06T13:44:53 UTC.